createdAt,value
2022-09-25T00:00:13.665Z,82.75
2022-09-25T00:01:14.063Z,82.95
2022-09-25T00:02:14.415Z,83.26
2022-09-25T00:03:14.644Z,83.67
2022-09-25T00:04:15.006Z,83.15
2022-09-25T00:05:15.362Z,82.95
2022-09-25T00:06:15.712Z,83.46
2022-09-25T00:07:16.080Z,83.06
2022-09-25T00:08:16.439Z,82.75
2022-09-25T00:09:16.810Z,82.95
2022-09-25T00:10:17.161Z,82.45
2022-09-25T00:11:17.510Z,82.14
2022-09-25T00:12:17.866Z,82.34
2022-09-25T00:13:18.210Z,82.34
2022-09-25T00:14:18.580Z,82.34
2022-09-25T00:15:18.926Z,82.45
2022-09-25T00:16:19.396Z,82.34
2022-09-25T00:17:19.683Z,82.45
2022-09-25T00:18:20.027Z,82.34
2022-09-25T00:19:20.394Z,81.93
2022-09-25T00:20:20.743Z,82.34
2022-09-25T00:21:21.079Z,81.73
2022-09-25T00:22:21.426Z,82.54
2022-09-25T00:23:21.780Z,82.14
2022-09-25T00:24:22.192Z,81.93
2022-09-25T00:25:22.546Z,82.65
2022-09-25T00:26:22.901Z,82.24
2022-09-25T00:27:23.238Z,81.63
2022-09-25T00:28:23.582Z,81.84
2022-09-25T00:29:23.945Z,81.63
2022-09-25T00:30:24.308Z,81.63
2022-09-25T00:31:24.802Z,81.73
2022-09-25T00:32:25.066Z,82.24
2022-09-25T00:33:25.424Z,81.73
2022-09-25T00:34:25.791Z,82.24
2022-09-25T00:35:26.126Z,82.85
2022-09-25T00:36:26.500Z,82.54
2022-09-25T00:37:26.831Z,82.07
2022-09-25T00:38:27.187Z,82.34
2022-09-25T00:39:27.550Z,82.48
2022-09-25T00:40:27.972Z,82.79
2022-09-25T00:41:28.325Z,82.04
2022-09-25T00:42:28.674Z,82.48
2022-09-25T00:43:29.042Z,81.87
2022-09-25T00:44:29.421Z,81.98
2022-09-25T00:45:29.774Z,82.28
2022-09-25T00:46:30.197Z,81.57
2022-09-25T00:47:30.434Z,81.77
2022-09-25T00:48:30.787Z,81.87
2022-09-25T00:49:31.153Z,81.16
2022-09-25T00:50:31.504Z,81.57
2022-09-25T00:51:31.872Z,81.46
2022-09-25T00:52:32.221Z,81.57
2022-09-25T00:53:32.578Z,81.67
2022-09-25T00:54:32.953Z,80.96
2022-09-25T00:55:33.293Z,80.85
2022-09-25T00:56:33.657Z,81.37
2022-09-25T00:57:34.017Z,81.77
2022-09-25T00:58:34.377Z,81.84
2022-09-25T00:59:34.757Z,81.02
2022-09-25T01:00:35.115Z,81.43
2022-09-25T01:01:35.535Z,80.82
2022-09-25T01:02:35.943Z,80.41
2022-09-25T01:03:36.303Z,80.00
2022-09-25T01:04:36.687Z,79.50
2022-09-25T01:05:36.986Z,80.35
2022-09-25T01:06:37.363Z,80.21
2022-09-25T01:07:37.712Z,80.04
2022-09-25T01:08:38.091Z,77.81
2022-09-25T01:09:38.465Z,78.78
2022-09-25T01:10:38.820Z,78.28
2022-09-25T01:11:39.182Z,78.99
2022-09-25T01:12:39.531Z,79.09
2022-09-25T01:13:39.885Z,78.38
2022-09-25T01:14:40.276Z,78.38
2022-09-25T01:15:40.612Z,78.08
2022-09-25T01:16:41.047Z,78.48
2022-09-25T01:17:41.309Z,78.78
2022-09-25T01:18:41.662Z,77.16
2022-09-25T01:19:45.877Z,78.08
2022-09-25T01:20:42.449Z,77.26
2022-09-25T01:21:42.797Z,78.17
2022-09-25T01:22:43.158Z,76.86
2022-09-25T01:23:43.510Z,76.04
2022-09-25T01:24:43.895Z,77.26
2022-09-25T01:25:44.240Z,76.95
2022-09-25T01:26:44.588Z,76.14
2022-09-25T01:27:44.937Z,77.06
2022-09-25T01:28:45.292Z,76.95
2022-09-25T01:29:45.655Z,77.47
2022-09-25T01:30:46.060Z,76.65
2022-09-25T01:31:46.424Z,76.75
2022-09-25T01:32:46.781Z,77.26
2022-09-25T01:33:47.136Z,76.04
2022-09-25T01:34:47.507Z,77.36
2022-09-25T01:35:47.883Z,77.36
2022-09-25T01:36:48.225Z,77.16
2022-09-25T01:37:48.568Z,76.75
2022-09-25T01:38:48.926Z,76.75
2022-09-25T01:39:49.316Z,76.95
2022-09-25T01:40:49.769Z,76.55
2022-09-25T01:41:50.049Z,76.65
2022-09-25T01:42:50.370Z,77.47
2022-09-25T01:43:50.742Z,77.36
2022-09-25T01:44:51.133Z,77.06
2022-09-25T01:45:51.570Z,76.04
2022-09-25T01:46:51.914Z,76.34
2022-09-25T01:47:52.265Z,76.14
2022-09-25T01:48:52.632Z,76.34
2022-09-25T01:49:53.002Z,76.25
2022-09-25T01:50:53.355Z,76.14
2022-09-25T01:51:55.736Z,76.75
2022-09-25T01:52:54.017Z,77.06
2022-09-25T01:53:54.361Z,76.86
2022-09-25T01:54:54.734Z,76.95
2022-09-25T01:55:55.084Z,77.47
2022-09-25T01:56:55.451Z,77.16
2022-09-25T01:57:55.805Z,77.87
2022-09-25T01:58:56.162Z,77.81
2022-09-25T01:59:56.527Z,78.11
2022-09-25T02:00:56.976Z,78.21
2022-09-25T02:01:57.203Z,78.92
2022-09-25T02:02:57.690Z,78.01
2022-09-25T02:03:57.981Z,78.11
2022-09-25T02:04:58.355Z,77.70
2022-09-25T02:05:58.712Z,78.31
2022-09-25T02:06:59.069Z,78.21
2022-09-25T02:07:59.418Z,78.31
2022-09-25T02:08:59.761Z,77.70
2022-09-25T02:10:00.173Z,77.74
2022-09-25T02:11:00.491Z,78.45
2022-09-25T02:12:00.838Z,78.25
2022-09-25T02:13:01.194Z,78.25
2022-09-25T02:14:01.551Z,78.35
2022-09-25T02:15:01.923Z,78.35
2022-09-25T02:16:02.277Z,78.15
2022-09-25T02:17:02.687Z,78.25
2022-09-25T02:18:03.032Z,78.55
2022-09-25T02:19:03.396Z,78.55
2022-09-25T02:20:03.785Z,78.66
2022-09-25T02:21:04.139Z,78.66
2022-09-25T02:22:04.527Z,78.76
2022-09-25T02:23:04.887Z,78.66
2022-09-25T02:24:05.244Z,78.55
2022-09-25T02:25:05.631Z,78.76
2022-09-25T02:26:05.984Z,78.86
2022-09-25T02:27:06.341Z,79.37
2022-09-25T02:28:06.692Z,78.96
2022-09-25T02:29:07.047Z,78.96
2022-09-25T02:30:07.422Z,78.86
2022-09-25T02:31:07.892Z,79.16
2022-09-25T02:32:08.151Z,79.27
2022-09-25T02:33:08.511Z,79.27
2022-09-25T02:34:14.477Z,79.16
2022-09-25T02:35:10.295Z,78.96
2022-09-25T02:36:09.660Z,79.47
2022-09-25T02:37:10.016Z,79.27
2022-09-25T02:38:10.384Z,79.16
2022-09-25T02:39:10.725Z,79.16
2022-09-25T02:40:11.177Z,79.50
2022-09-25T02:41:11.427Z,79.68
2022-09-25T02:42:11.776Z,79.81
2022-09-25T02:43:12.136Z,79.71
2022-09-25T02:44:12.520Z,79.81
2022-09-25T02:45:12.898Z,79.61
2022-09-25T02:46:13.304Z,79.71
2022-09-25T02:47:13.649Z,80.22
2022-09-25T02:48:13.991Z,80.02
2022-09-25T02:49:14.344Z,80.02
2022-09-25T02:50:14.713Z,80.22
2022-09-25T02:51:15.065Z,80.42
2022-09-25T02:52:15.434Z,80.11
2022-09-25T02:53:15.773Z,80.22
2022-09-25T02:54:16.135Z,80.22
2022-09-25T02:55:16.494Z,80.32
2022-09-25T02:56:16.846Z,80.22
2022-09-25T02:57:17.193Z,80.32
2022-09-25T02:58:17.573Z,80.32
2022-09-25T02:59:17.916Z,80.11
2022-09-25T03:00:18.272Z,80.32
2022-09-25T03:01:18.681Z,80.32
2022-09-25T03:02:18.998Z,80.42
2022-09-25T03:03:19.322Z,80.22
2022-09-25T03:04:19.670Z,80.42
2022-09-25T03:05:20.032Z,80.22
2022-09-25T03:06:20.398Z,80.63
2022-09-25T03:07:20.757Z,80.32
2022-09-25T03:08:21.112Z,80.42
2022-09-25T03:09:21.460Z,80.83
2022-09-25T03:10:21.842Z,80.83
2022-09-25T03:11:22.190Z,80.73
2022-09-25T03:12:22.541Z,80.93
2022-09-25T03:13:22.889Z,80.83
2022-09-25T03:14:23.270Z,80.83
2022-09-25T03:15:23.637Z,80.83
2022-09-25T03:16:24.048Z,80.63
2022-09-25T03:17:24.354Z,81.24
2022-09-25T03:18:24.730Z,80.83
2022-09-25T03:19:25.093Z,80.73
2022-09-25T03:20:25.732Z,81.07
2022-09-25T03:21:25.859Z,80.73
2022-09-25T03:22:26.205Z,81.13
2022-09-25T03:23:26.563Z,80.97
2022-09-25T03:24:26.925Z,80.97
2022-09-25T03:25:27.315Z,81.17
2022-09-25T03:26:27.660Z,81.17
2022-09-25T03:27:28.056Z,81.27
2022-09-25T03:28:28.429Z,81.27
2022-09-25T03:29:28.843Z,81.38
2022-09-25T03:30:29.273Z,81.38
2022-09-25T03:31:29.589Z,81.38
2022-09-25T03:32:29.938Z,81.48
2022-09-25T03:33:30.300Z,81.48
2022-09-25T03:34:30.659Z,81.48
2022-09-25T03:35:31.035Z,81.68
2022-09-25T03:36:31.384Z,81.48
2022-09-25T03:37:31.741Z,81.68
2022-09-25T03:38:32.096Z,81.68
2022-09-25T03:39:32.456Z,81.79
2022-09-25T03:40:32.923Z,81.79
2022-09-25T03:41:33.195Z,82.09
2022-09-25T03:42:33.566Z,81.99
2022-09-25T03:43:33.935Z,82.19
2022-09-25T03:44:34.303Z,82.09
2022-09-25T03:45:34.664Z,82.40
2022-09-25T03:46:35.075Z,82.09
2022-09-25T03:47:35.356Z,82.09
2022-09-25T03:48:35.716Z,82.09
2022-09-25T03:49:36.077Z,82.29
2022-09-25T03:50:36.454Z,82.40
2022-09-25T03:51:36.823Z,82.40
2022-09-25T03:52:37.185Z,82.90
2022-09-25T03:53:37.540Z,82.80
2022-09-25T03:54:37.903Z,82.60
2022-09-25T03:55:38.280Z,82.70
2022-09-25T03:56:38.652Z,82.90
2022-09-25T03:57:39.014Z,83.11
2022-09-25T03:58:39.369Z,82.70
2022-09-25T03:59:39.723Z,82.80
2022-09-25T04:00:40.096Z,82.60
2022-09-25T04:01:40.532Z,83.01
2022-09-25T04:02:40.890Z,82.90
2022-09-25T04:03:41.234Z,83.01
2022-09-25T04:04:41.602Z,83.21
2022-09-25T04:05:42.002Z,82.80
2022-09-25T04:06:42.366Z,83.01
2022-09-25T04:07:42.732Z,83.21
2022-09-25T04:08:43.071Z,83.21
2022-09-25T04:09:43.431Z,83.31
2022-09-25T04:10:43.805Z,83.42
2022-09-25T04:11:44.166Z,83.62
2022-09-25T04:12:44.531Z,83.42
2022-09-25T04:13:44.932Z,83.72
2022-09-25T04:14:45.266Z,83.72
2022-09-25T04:15:45.639Z,83.42
2022-09-25T04:16:46.069Z,83.51
2022-09-25T04:17:46.421Z,84.12
2022-09-25T04:18:46.798Z,83.72
2022-09-25T04:19:47.152Z,83.92
2022-09-25T04:20:47.541Z,83.96
2022-09-25T04:21:47.894Z,84.03
2022-09-25T04:22:48.250Z,84.23
2022-09-25T04:23:48.616Z,84.12
2022-09-25T04:24:48.983Z,84.33
2022-09-25T04:25:49.350Z,84.43
2022-09-25T04:26:49.739Z,84.03
2022-09-25T04:27:50.089Z,84.43
2022-09-25T04:28:50.441Z,84.64
2022-09-25T04:29:50.799Z,84.33
2022-09-25T04:30:51.177Z,84.47
2022-09-25T04:31:51.565Z,84.74
2022-09-25T04:32:51.920Z,84.27
2022-09-25T04:33:52.273Z,84.27
2022-09-25T04:34:52.637Z,84.47
2022-09-25T04:35:53.026Z,84.58
2022-09-25T04:36:53.385Z,84.58
2022-09-25T04:37:53.755Z,84.67
2022-09-25T04:38:54.096Z,84.67
2022-09-25T04:39:54.458Z,84.37
2022-09-25T04:40:54.911Z,84.37
2022-09-25T04:41:55.146Z,84.47
2022-09-25T04:42:55.506Z,84.53
2022-09-25T04:43:55.862Z,84.23
2022-09-25T04:44:56.229Z,84.33
2022-09-25T04:45:56.671Z,84.23
2022-09-25T04:46:56.907Z,84.12
2022-09-25T04:47:57.262Z,84.43
2022-09-25T04:48:57.624Z,84.23
2022-09-25T04:49:58.003Z,84.33
2022-09-25T04:50:58.385Z,84.64
2022-09-25T04:51:58.754Z,84.23
2022-09-25T04:52:59.113Z,84.67
2022-09-25T04:53:59.465Z,84.37
2022-09-25T04:54:59.823Z,84.37
2022-09-25T04:56:00.192Z,84.47
2022-09-25T04:57:00.542Z,84.47
2022-09-25T04:58:00.895Z,84.88
2022-09-25T04:59:01.243Z,85.08
2022-09-25T05:00:01.591Z,84.94
2022-09-25T05:01:02.030Z,85.08
2022-09-25T05:02:02.431Z,84.88
2022-09-25T05:03:02.798Z,84.27
2022-09-25T05:04:08.326Z,84.58
2022-09-25T05:05:04.483Z,85.08
2022-09-25T05:06:03.830Z,85.25
2022-09-25T05:07:04.187Z,84.37
2022-09-25T05:08:04.541Z,84.98
2022-09-25T05:09:04.897Z,85.19
2022-09-25T05:10:05.242Z,85.49
2022-09-25T05:11:05.618Z,85.49
2022-09-25T05:12:05.960Z,84.98
2022-09-25T05:13:06.320Z,84.98
2022-09-25T05:14:06.715Z,85.19
2022-09-25T05:15:07.087Z,85.19
2022-09-25T05:16:07.515Z,84.58
2022-09-25T05:17:07.848Z,85.08
2022-09-25T05:18:08.200Z,85.19
2022-09-25T05:19:08.550Z,84.27
2022-09-25T05:20:08.900Z,84.47
2022-09-25T05:21:09.270Z,84.78
2022-09-25T05:22:09.618Z,85.39
2022-09-25T05:23:10.026Z,85.19
2022-09-25T05:24:10.410Z,85.39
2022-09-25T05:25:10.789Z,85.60
2022-09-25T05:26:11.268Z,85.08
2022-09-25T05:27:11.497Z,85.19
2022-09-25T05:28:11.847Z,84.88
2022-09-25T05:29:12.212Z,85.19
2022-09-25T05:30:12.568Z,85.08
2022-09-25T05:31:12.960Z,84.88
2022-09-25T05:32:13.288Z,84.67
2022-09-25T05:33:13.653Z,84.64
2022-09-25T05:34:14.004Z,84.74
2022-09-25T05:35:14.354Z,84.94
2022-09-25T05:36:14.720Z,85.35
2022-09-25T05:37:15.086Z,84.47
2022-09-25T05:38:15.440Z,84.88
2022-09-25T05:39:15.804Z,84.58
2022-09-25T05:40:16.199Z,84.78
2022-09-25T05:41:16.574Z,84.94
2022-09-25T05:42:16.927Z,85.05
2022-09-25T05:43:17.286Z,84.84
2022-09-25T05:44:17.636Z,85.05
2022-09-25T05:45:17.986Z,84.64
2022-09-25T05:46:18.505Z,84.43
2022-09-25T05:47:18.758Z,84.29
2022-09-25T05:48:19.104Z,84.29
2022-09-25T05:49:19.454Z,84.19
2022-09-25T05:50:19.794Z,82.76
2022-09-25T05:51:20.164Z,82.87
2022-09-25T05:52:20.515Z,82.56
2022-09-25T05:53:27.899Z,82.46
2022-09-25T05:54:21.198Z,82.66
2022-09-25T05:55:21.537Z,82.01
2022-09-25T05:56:21.901Z,82.32
2022-09-25T05:57:22.257Z,82.21
2022-09-25T05:58:22.583Z,81.60
2022-09-25T05:59:22.931Z,81.51
2022-09-25T06:00:23.268Z,81.16
2022-09-25T06:01:23.669Z,80.65
2022-09-25T06:02:24.149Z,80.65
2022-09-25T06:03:24.386Z,80.24
2022-09-25T06:04:24.631Z,80.15
2022-09-25T06:05:24.989Z,80.35
2022-09-25T06:06:27.600Z,79.94
2022-09-25T06:07:25.738Z,79.80
2022-09-25T06:08:26.086Z,79.90
2022-09-25T06:09:26.428Z,78.99
2022-09-25T06:10:26.837Z,78.75
2022-09-25T06:11:27.102Z,78.95
2022-09-25T06:12:27.430Z,77.43
2022-09-25T06:13:27.768Z,77.29
2022-09-25T06:14:28.107Z,77.19
2022-09-25T06:15:28.479Z,76.85
2022-09-25T06:16:28.851Z,76.54
2022-09-25T06:17:29.179Z,75.83
2022-09-25T06:18:29.528Z,75.83
2022-09-25T06:19:29.850Z,75.73
2022-09-25T06:20:30.189Z,75.83
2022-09-25T06:21:30.560Z,75.93
2022-09-25T06:22:30.897Z,76.54
2022-09-25T06:23:31.240Z,75.97
2022-09-25T06:24:31.579Z,76.07
2022-09-25T06:25:31.948Z,76.28
2022-09-25T06:26:32.289Z,76.17
2022-09-25T06:27:32.614Z,76.28
2022-09-25T06:28:32.946Z,76.68
2022-09-25T06:29:33.274Z,76.54
2022-09-25T06:30:33.618Z,75.93
2022-09-25T06:31:34.066Z,75.93
2022-09-25T06:32:34.325Z,75.83
2022-09-25T06:33:34.657Z,76.03
2022-09-25T06:34:34.996Z,76.54
2022-09-25T06:35:35.329Z,76.03
2022-09-25T06:36:35.672Z,76.14
2022-09-25T06:37:36.003Z,76.40
2022-09-25T06:38:36.326Z,75.79
2022-09-25T06:39:36.655Z,75.09
2022-09-25T06:40:37.016Z,75.19
2022-09-25T06:41:37.349Z,75.39
2022-09-25T06:42:37.673Z,75.79
2022-09-25T06:43:38.092Z,75.49
2022-09-25T06:44:38.289Z,75.49
2022-09-25T06:45:38.625Z,75.49
2022-09-25T06:46:39.035Z,75.19
2022-09-25T06:47:39.283Z,75.32
2022-09-25T06:48:39.614Z,75.93
2022-09-25T06:49:39.934Z,75.93
2022-09-25T06:50:40.273Z,76.54
2022-09-25T06:51:40.609Z,76.64
2022-09-25T06:52:40.940Z,76.34
2022-09-25T06:53:41.272Z,76.14
2022-09-25T06:54:44.156Z,76.03
2022-09-25T06:55:41.982Z,76.24
2022-09-25T06:56:42.319Z,76.03
2022-09-25T06:57:42.644Z,76.64
2022-09-25T06:58:42.974Z,75.90
2022-09-25T06:59:43.316Z,76.20
2022-09-25T07:00:43.646Z,74.88
2022-09-25T07:01:44.029Z,74.88
2022-09-25T07:02:44.385Z,74.65
2022-09-25T07:03:44.722Z,74.34
2022-09-25T07:04:45.038Z,74.65
2022-09-25T07:05:45.382Z,74.54
2022-09-25T07:06:45.732Z,74.85
2022-09-25T07:07:46.052Z,75.46
2022-09-25T07:08:46.377Z,74.44
2022-09-25T07:09:46.707Z,74.95
2022-09-25T07:10:47.036Z,74.65
2022-09-25T07:11:47.362Z,74.44
2022-09-25T07:12:47.691Z,74.54
2022-09-25T07:13:48.022Z,73.93
2022-09-25T07:14:48.325Z,74.34
2022-09-25T07:15:48.729Z,74.34
2022-09-25T07:16:49.030Z,74.14
2022-09-25T07:17:49.352Z,74.74
2022-09-25T07:18:49.786Z,73.93
2022-09-25T07:19:50.006Z,74.04
2022-09-25T07:20:50.328Z,73.93
2022-09-25T07:21:50.659Z,74.10
2022-09-25T07:22:50.983Z,74.00
2022-09-25T07:23:51.309Z,73.80
2022-09-25T07:24:51.646Z,73.70
2022-09-25T07:25:51.950Z,73.25
2022-09-25T07:26:52.272Z,73.05
2022-09-25T07:27:52.611Z,72.11
2022-09-25T07:28:52.942Z,71.97
2022-09-25T07:29:53.269Z,70.96
2022-09-25T07:30:53.641Z,70.93
2022-09-25T07:31:54.003Z,69.95
2022-09-25T07:32:59.821Z,67.76
2022-09-25T07:33:55.749Z,67.43
2022-09-25T07:34:55.051Z,66.99
2022-09-25T07:35:55.712Z,66.59
2022-09-25T07:36:55.777Z,66.62
2022-09-25T07:37:56.108Z,67.23
2022-09-25T07:38:56.402Z,67.86
2022-09-25T07:39:56.744Z,68.60
2022-09-25T07:40:57.091Z,68.80
2022-09-25T07:41:57.378Z,68.84
2022-09-25T07:42:57.685Z,70.18
2022-09-25T07:44:59.257Z,70.83
2022-09-25T07:45:58.619Z,69.71
2022-09-25T07:46:58.852Z,70.32
2022-09-25T07:47:59.171Z,71.03
2022-09-25T07:48:59.480Z,70.73
2022-09-25T07:49:59.806Z,70.79
2022-09-25T07:51:00.116Z,70.49
2022-09-25T07:52:00.438Z,69.89
2022-09-25T07:53:00.761Z,70.09
2022-09-25T07:54:01.083Z,70.69
2022-09-25T07:55:01.393Z,71.00
2022-09-25T07:56:06.237Z,71.40
2022-09-25T07:57:03.078Z,70.18
2022-09-25T07:58:02.403Z,71.09
2022-09-25T07:59:02.715Z,70.59
2022-09-25T08:00:03.038Z,70.69
2022-09-25T08:01:03.429Z,70.09
2022-09-25T08:02:03.773Z,70.39
2022-09-25T08:03:04.184Z,70.59
2022-09-25T08:04:04.444Z,71.09
2022-09-25T08:05:04.742Z,70.46
2022-09-25T08:06:05.074Z,71.77
2022-09-25T08:07:05.401Z,70.73
2022-09-25T08:08:05.727Z,70.12
2022-09-25T08:09:10.327Z,70.32
2022-09-25T08:10:06.408Z,71.64
2022-09-25T08:11:06.739Z,70.29
2022-09-25T08:12:07.059Z,69.48
2022-09-25T08:13:07.396Z,67.76
2022-09-25T08:14:07.754Z,69.38
2022-09-25T08:15:07.989Z,68.27
2022-09-25T08:16:08.337Z,68.67
2022-09-25T08:17:08.677Z,69.18
2022-09-25T08:18:08.988Z,69.24
2022-09-25T08:19:09.323Z,68.44
2022-09-25T08:20:09.627Z,67.73
2022-09-25T08:21:09.948Z,67.33
2022-09-25T08:22:10.273Z,67.46
2022-09-25T08:23:10.582Z,68.71
2022-09-25T08:24:10.994Z,69.01
2022-09-25T08:25:11.248Z,69.82
2022-09-25T08:26:11.556Z,69.51
2022-09-25T08:27:11.906Z,69.48
2022-09-25T08:28:12.212Z,68.07
2022-09-25T08:29:12.525Z,68.54
2022-09-25T08:30:12.863Z,66.93
2022-09-25T08:31:13.282Z,67.53
2022-09-25T08:32:13.485Z,68.24
2022-09-25T08:33:15.746Z,67.63
2022-09-25T08:34:39.604Z,68.64
2022-09-25T08:35:15.484Z,68.54
2022-09-25T08:36:14.797Z,68.13
2022-09-25T08:37:15.123Z,68.91
2022-09-25T08:38:15.445Z,67.23
2022-09-25T08:39:15.754Z,67.30
2022-09-25T08:40:16.115Z,68.13
2022-09-25T08:41:16.462Z,67.23
2022-09-25T08:42:16.748Z,68.10
2022-09-25T08:43:17.071Z,67.40
2022-09-25T08:44:17.397Z,68.61
2022-09-25T08:45:21.712Z,67.60
2022-09-25T08:46:18.084Z,66.69
2022-09-25T08:47:19.776Z,67.80
2022-09-25T08:48:18.670Z,68.10
2022-09-25T08:49:19.004Z,68.30
2022-09-25T08:50:19.327Z,68.01
2022-09-25T08:51:19.633Z,69.01
2022-09-25T08:52:19.955Z,69.52
2022-09-25T08:53:20.283Z,68.98
2022-09-25T08:54:20.587Z,68.48
2022-09-25T08:55:20.903Z,67.97
2022-09-25T08:56:21.212Z,68.07
2022-09-25T08:57:21.561Z,67.54
2022-09-25T08:58:21.872Z,67.13
2022-09-25T08:59:22.185Z,66.60
2022-09-25T09:00:22.493Z,65.62
2022-09-25T09:01:22.826Z,64.92
2022-09-25T09:02:23.229Z,65.72
2022-09-25T09:03:23.463Z,66.53
2022-09-25T09:04:23.784Z,65.59
2022-09-25T09:05:24.093Z,65.12
2022-09-25T09:06:24.402Z,65.92
2022-09-25T09:07:27.571Z,65.32
2022-09-25T09:08:25.013Z,65.22
2022-09-25T09:09:25.319Z,65.42
2022-09-25T09:10:25.627Z,66.42
2022-09-25T09:11:25.939Z,65.42
2022-09-25T09:12:26.252Z,65.29
2022-09-25T09:13:26.562Z,65.29
2022-09-25T09:14:26.869Z,64.89
2022-09-25T09:15:27.276Z,65.29
2022-09-25T09:16:27.501Z,66.06
2022-09-25T09:17:27.820Z,63.48
2022-09-25T09:18:28.116Z,61.88
2022-09-25T09:19:28.423Z,60.44
2022-09-25T09:20:28.711Z,57.32
2022-09-25T09:21:29.003Z,54.79
2022-09-25T09:22:29.302Z,54.52
2022-09-25T09:23:29.593Z,56.15
2022-09-25T09:24:29.883Z,57.60
2022-09-25T09:25:30.153Z,59.33
2022-09-25T09:26:30.470Z,57.86
2022-09-25T09:27:30.769Z,58.36
2022-09-25T09:28:31.041Z,58.76
2022-09-25T09:29:31.320Z,59.49
2022-09-25T09:30:31.595Z,58.89
2022-09-25T09:31:31.866Z,59.72
2022-09-25T09:32:32.162Z,59.42
2022-09-25T09:33:32.439Z,59.78
2022-09-25T09:34:53.682Z,60.91
2022-09-25T09:35:34.345Z,61.94
2022-09-25T09:36:33.362Z,62.18
2022-09-25T09:37:33.653Z,62.75
2022-09-25T09:38:33.935Z,62.85
2022-09-25T09:39:34.218Z,62.24
2022-09-25T09:40:34.525Z,62.24
2022-09-25T09:41:34.794Z,61.85
2022-09-25T09:42:35.081Z,61.54
2022-09-25T09:43:35.361Z,61.91
2022-09-25T09:44:35.651Z,61.99
2022-09-25T09:45:35.941Z,60.88
2022-09-25T09:46:36.250Z,60.15
2022-09-25T09:47:36.541Z,59.82
2022-09-25T09:48:36.813Z,59.29
2022-09-25T09:49:37.082Z,59.16
2022-09-25T09:50:42.464Z,59.19
2022-09-25T09:51:38.706Z,59.39
2022-09-25T09:52:38.001Z,58.18
2022-09-25T09:53:38.273Z,57.86
2022-09-25T09:54:38.555Z,58.03
2022-09-25T09:55:38.832Z,58.23
2022-09-25T09:56:39.101Z,57.23
2022-09-25T09:57:39.412Z,56.48
2022-09-25T09:58:39.680Z,55.02
2022-09-25T09:59:39.955Z,54.22
2022-09-25T10:00:40.237Z,53.47
2022-09-25T10:01:42.123Z,52.69
2022-09-25T10:02:40.816Z,51.62
2022-09-25T10:03:41.007Z,49.63
2022-09-25T10:04:41.257Z,48.79
2022-09-25T10:05:41.521Z,48.57
2022-09-25T10:06:41.733Z,47.50
2022-09-25T10:07:41.976Z,47.74
2022-09-25T10:08:42.194Z,50.03
2022-09-25T10:09:42.442Z,48.86
2022-09-25T10:10:42.673Z,48.68
2022-09-25T10:11:42.909Z,48.80
2022-09-25T10:12:43.177Z,50.57
2022-09-25T10:13:43.407Z,51.37
2022-09-25T10:14:43.644Z,51.15
2022-09-25T10:15:43.930Z,51.00
2022-09-25T10:16:44.149Z,50.80
2022-09-25T10:17:44.374Z,49.43
2022-09-25T10:18:44.600Z,47.20
2022-09-25T10:19:44.825Z,47.28
2022-09-25T10:20:45.073Z,46.76
2022-09-25T10:21:45.275Z,46.53
2022-09-25T10:22:45.526Z,45.76
2022-09-25T10:23:45.738Z,45.96
2022-09-25T10:24:45.933Z,46.88
2022-09-25T10:25:46.134Z,47.50
2022-09-25T10:26:46.353Z,47.25
2022-09-25T10:27:46.565Z,47.64
2022-09-25T10:28:46.773Z,47.86
2022-09-25T10:29:47.002Z,47.40
2022-09-25T10:30:47.260Z,47.28
2022-09-25T10:31:47.347Z,47.03
2022-09-25T10:32:47.563Z,45.68
2022-09-25T10:33:47.765Z,44.37
2022-09-25T10:34:47.948Z,44.54
2022-09-25T10:35:48.139Z,44.13
2022-09-25T10:36:48.322Z,43.19
2022-09-25T10:37:48.521Z,41.49
2022-09-25T10:38:48.697Z,42.74
2022-09-25T10:39:49.030Z,44.45
2022-09-25T10:40:49.082Z,44.64
2022-09-25T10:41:49.265Z,43.29
2022-09-25T10:42:49.458Z,42.05
2022-09-25T10:43:49.679Z,39.84
2022-09-25T10:44:54.143Z,39.65
2022-09-25T10:45:51.048Z,39.84
2022-09-25T10:46:50.223Z,40.66
2022-09-25T10:47:50.407Z,40.45
2022-09-25T10:48:50.585Z,40.56
2022-09-25T10:49:50.753Z,42.43
2022-09-25T10:50:50.953Z,44.27
2022-09-25T10:51:51.113Z,45.08
2022-09-25T10:52:51.301Z,45.25
2022-09-25T10:53:51.476Z,46.70
2022-09-25T10:54:51.656Z,47.52
2022-09-25T10:55:51.855Z,48.61
2022-09-25T10:56:52.035Z,48.14
2022-09-25T10:57:52.237Z,48.38
2022-09-25T10:58:52.434Z,49.63
2022-09-25T10:59:52.640Z,50.32
2022-09-25T11:00:52.865Z,50.02
2022-09-25T11:01:53.180Z,50.02
2022-09-25T11:02:53.356Z,49.40
2022-09-25T11:03:53.441Z,48.79
2022-09-25T11:04:53.661Z,48.96
2022-09-25T11:05:53.888Z,48.61
2022-09-25T11:06:54.092Z,45.47
2022-09-25T11:07:54.320Z,45.27
2022-09-25T11:08:54.529Z,46.70
2022-09-25T11:09:59.785Z,46.75
2022-09-25T11:10:55.913Z,47.99
2022-09-25T11:11:55.101Z,49.01
2022-09-25T11:12:55.329Z,49.93
2022-09-25T11:13:55.549Z,50.35
2022-09-25T11:14:55.760Z,51.50
2022-09-25T11:15:55.981Z,52.42
2022-09-25T11:16:56.292Z,52.55
2022-09-25T11:17:56.441Z,53.30
2022-09-25T11:18:59.071Z,54.49
2022-09-25T11:19:56.833Z,54.52
2022-09-25T11:20:57.062Z,54.72
2022-09-25T11:21:57.295Z,55.82
2022-09-25T11:22:57.555Z,54.92
2022-09-25T11:23:57.802Z,55.82
2022-09-25T11:25:01.344Z,56.35
2022-09-25T11:25:58.345Z,55.77
2022-09-25T11:26:58.598Z,56.37
2022-09-25T11:27:58.852Z,53.87
2022-09-25T11:28:59.112Z,54.24
2022-09-25T11:29:59.369Z,54.17
2022-09-25T11:30:59.645Z,54.87
2022-09-25T11:31:59.905Z,55.17
2022-09-25T11:33:00.247Z,55.07
2022-09-25T11:34:00.393Z,55.30
2022-09-25T11:35:00.660Z,56.20
2022-09-25T11:36:00.921Z,56.52
2022-09-25T11:37:01.185Z,56.83
2022-09-25T11:38:02.490Z,56.30
2022-09-25T11:39:01.717Z,56.10
2022-09-25T11:40:01.998Z,55.60
2022-09-25T11:41:02.264Z,55.47
2022-09-25T11:42:02.537Z,55.67
2022-09-25T11:43:02.831Z,55.47
2022-09-25T11:44:03.095Z,55.47
2022-09-25T11:45:03.405Z,55.80
2022-09-25T11:46:03.670Z,56.57
2022-09-25T11:47:03.918Z,56.05
2022-09-25T11:48:04.207Z,56.15
2022-09-25T11:49:11.978Z,54.85
2022-09-25T11:50:05.712Z,54.94
2022-09-25T11:51:04.972Z,54.52
2022-09-25T11:52:05.262Z,54.29
2022-09-25T11:53:05.547Z,53.94
2022-09-25T11:54:32.641Z,53.69
2022-09-25T11:55:07.137Z,51.72
2022-09-25T11:56:06.402Z,50.18
2022-09-25T11:57:06.659Z,49.76
2022-09-25T11:58:06.933Z,48.94
2022-09-25T11:59:07.185Z,49.53
2022-09-25T12:00:07.440Z,48.49
2022-09-25T12:01:07.754Z,46.73
2022-09-25T12:02:08.001Z,45.45
2022-09-25T12:03:08.302Z,45.05
2022-09-25T12:04:08.553Z,44.39
2022-09-25T12:05:08.771Z,42.54
2022-09-25T12:06:09.003Z,41.57
2022-09-25T12:07:09.214Z,40.86
2022-09-25T12:08:09.443Z,40.35
2022-09-25T12:09:09.698Z,39.34
2022-09-25T12:10:09.925Z,40.68
2022-09-25T12:11:10.118Z,41.20
2022-09-25T12:12:10.321Z,40.48
2022-09-25T12:13:10.542Z,41.06
2022-09-25T12:14:10.737Z,41.14
2022-09-25T12:15:10.934Z,42.05
2022-09-25T12:16:11.166Z,41.65
2022-09-25T12:17:11.365Z,41.47
2022-09-25T12:18:11.586Z,42.01
2022-09-25T12:19:11.783Z,41.17
2022-09-25T12:20:11.975Z,41.12
2022-09-25T12:21:12.212Z,40.94
2022-09-25T12:22:12.396Z,41.41
2022-09-25T12:23:12.615Z,40.78
2022-09-25T12:24:12.858Z,40.62
2022-09-25T12:25:12.963Z,40.27
2022-09-25T12:26:13.156Z,37.76
2022-09-25T12:27:13.345Z,38.16
2022-09-25T12:28:13.546Z,39.44
2022-09-25T12:29:13.736Z,37.88
2022-09-25T12:30:13.922Z,38.02
2022-09-25T12:31:14.139Z,40.50
2022-09-25T12:32:14.294Z,39.93
2022-09-25T12:33:14.547Z,40.37
2022-09-25T12:34:14.627Z,42.07
2022-09-25T12:35:14.808Z,42.14
2022-09-25T12:36:14.988Z,42.13
2022-09-25T12:37:15.186Z,40.70
2022-09-25T12:38:15.386Z,41.91
2022-09-25T12:39:15.578Z,42.25
2022-09-25T12:40:15.793Z,43.40
2022-09-25T12:41:15.966Z,44.23
2022-09-25T12:42:16.196Z,45.76
2022-09-25T12:43:16.376Z,45.90
2022-09-25T12:44:16.588Z,45.71
2022-09-25T12:45:16.800Z,47.30
2022-09-25T12:46:17.061Z,47.72
2022-09-25T12:47:17.178Z,45.97
2022-09-25T12:48:17.406Z,46.77
2022-09-25T12:49:17.632Z,46.97
2022-09-25T12:50:17.855Z,47.69
2022-09-25T12:51:18.068Z,48.23
2022-09-25T12:52:18.283Z,49.40
2022-09-25T12:53:18.534Z,51.22
2022-09-25T12:54:18.749Z,52.44
2022-09-25T12:55:19.011Z,51.22
2022-09-25T12:56:19.219Z,50.62
2022-09-25T12:57:19.457Z,51.02